Terminal Aerodrome Forecast
Issued by NWS Upton, NY

Home | Current Version | Previous Version | Text Only | Print | Product List | Glossary On
Versions: 1 2 3 4 5 6 7 8 9 10 11 12 13 14 15 16 17 18 19 20 21 22 23 24 25 26 27 28 29 30 31 32 33 34 35
574
FTUS41 KOKX 281531 AAB
TAFEWR
TAF AMD
KEWR 281531Z 2816/0118 11004KT P6SM FEW010 SCT040 OVC080
     FM282100 14007KT P6SM BKN020 OVC040
     FM010000 13006KT 4SM BR BKN006 OVC010
     FM010200 14006KT 2SM RA BR OVC005
     FM010700 19009KT 3SM BR OVC005
     FM010900 20005KT 3SM BR OVC004 WS020/24045KT
     FM011500 21013G21KT 5SM BR OVC012 PROB30 0115/0117 2SM RA=

USA.gov is the U.S. government's official web portal to all federal, state and local government web resources and services.